Time,TemperatureF,DewpointF,PressureIn,WindDirection,WindDirectionDegrees,WindSpeedMPH,WindSpeedGustMPH,Humidity,HourlyPrecipIn,Conditions,Clouds,dailyrainin,SoftwareType,DateUTC
2013-02-04 00:01:00,9.0,5.0,-100.00,ENE,65,4.0,6.0,81,0.00,,,0.00,,2013-02-04 00:01:00,
2013-02-04 00:11:00,9.0,5.0,-100.00,NE,55,4.0,6.0,82,0.00,,,0.00,,2013-02-04 00:11:00,
2013-02-04 00:22:00,9.0,5.0,-100.00,ENE,75,4.0,6.0,82,0.00,,,0.00,,2013-02-04 00:22:00,
2013-02-04 00:31:00,9.0,5.0,-100.00,ENE,70,4.0,6.0,82,0.00,,,0.00,,2013-02-04 00:31:00,
2013-02-04 00:41:00,9.0,5.0,-100.00,ENE,70,4.0,6.0,81,0.00,,,0.00,,2013-02-04 00:41:00,
2013-02-04 00:51:00,9.0,5.0,-100.00,ENE,65,4.0,6.0,81,0.00,,,0.00,,2013-02-04 00:51:00,
2013-02-04 01:01:00,9.0,5.0,-100.00,NE,50,4.0,6.0,81,0.00,,,0.00,,2013-02-04 01:01:00,
2013-02-04 01:11:00,9.0,5.0,-100.00,NE,50,4.0,6.0,81,0.00,,,0.00,,2013-02-04 01:11:00,
2013-02-04 01:21:00,9.0,5.0,-100.00,ENE,70,4.0,6.0,82,0.00,,,0.00,,2013-02-04 01:21:00,
2013-02-04 01:31:00,9.0,5.0,-100.00,NE,50,4.0,5.0,84,0.00,,,0.00,,2013-02-04 01:31:00,
2013-02-04 01:41:00,9.0,5.0,-100.00,NE,35,6.0,6.0,85,0.00,,,0.00,,2013-02-04 01:41:00,
2013-02-04 01:52:00,9.0,5.0,-100.00,NE,40,4.0,6.0,86,0.00,,,0.00,,2013-02-04 01:52:00,
2013-02-04 02:02:00,9.0,5.0,-100.00,NE,35,6.0,7.0,87,0.00,,,0.00,,2013-02-04 02:02:00,
2013-02-04 02:11:00,9.0,7.0,-100.00,NNE,25,7.0,9.0,88,0.00,,,0.00,,2013-02-04 02:11:00,
2013-02-04 02:21:00,9.0,7.0,-100.00,NE,40,7.0,9.0,89,0.00,,,0.00,,2013-02-04 02:21:00,
2013-02-04 02:31:00,9.0,7.0,-100.00,NE,35,6.0,8.0,90,0.00,,,0.00,,2013-02-04 02:31:00,
2013-02-04 02:41:00,9.0,7.0,-100.00,NNE,30,7.0,9.0,90,0.00,,,0.00,,2013-02-04 02:41:00,
2013-02-04 02:52:00,9.0,7.0,-100.00,NE,40,7.0,8.0,91,0.00,,,0.00,,2013-02-04 02:52:00,
2013-02-04 03:02:00,9.0,7.0,-100.00,NNE,30,6.0,8.0,91,0.00,,,0.00,,2013-02-04 03:02:00,
2013-02-04 03:11:00,9.0,7.0,-100.00,NNE,30,6.0,8.0,91,0.00,,,0.00,,2013-02-04 03:11:00,
2013-02-04 03:21:00,9.0,7.0,-100.00,NNE,25,7.0,9.0,91,0.00,,,0.00,,2013-02-04 03:21:00,
2013-02-04 03:32:00,9.0,7.0,-100.00,NNE,20,4.0,7.0,92,0.00,,,0.00,,2013-02-04 03:32:00,
2013-02-04 03:41:00,9.0,7.0,-100.00,NNE,25,6.0,7.0,92,0.00,,,0.00,,2013-02-04 03:41:00,
2013-02-04 03:51:00,9.0,7.0,-100.00,NNE,25,6.0,7.0,92,0.00,,,0.00,,2013-02-04 03:51:00,
2013-02-04 04:01:00,9.0,7.0,-100.00,NNE,20,6.0,7.0,92,0.00,,,0.00,,2013-02-04 04:01:00,
2013-02-04 04:11:00,9.0,7.0,-100.00,NNE,20,6.0,8.0,93,0.00,,,0.00,,2013-02-04 04:11:00,
2013-02-04 04:21:00,9.0,7.0,-100.00,NNE,30,6.0,7.0,93,0.00,,,0.00,,2013-02-04 04:21:00,
2013-02-04 04:32:00,9.0,7.0,-100.00,NNE,20,7.0,9.0,93,0.00,,,0.00,,2013-02-04 04:32:00,
2013-02-04 04:41:00,9.0,7.0,-100.00,NNE,30,7.0,9.0,93,0.00,,,0.00,,2013-02-04 04:41:00,
2013-02-04 04:52:00,9.0,7.0,-100.00,NNE,30,7.0,9.0,93,0.00,,,0.00,,2013-02-04 04:52:00,
2013-02-04 05:03:00,9.0,7.0,-100.00,NNE,30,7.0,9.0,93,0.00,,,0.00,,2013-02-04 05:03:00,
2013-02-04 05:11:00,9.0,7.0,-100.00,NE,45,6.0,9.0,93,0.00,,,0.00,,2013-02-04 05:11:00,
2013-02-04 05:22:00,9.0,7.0,-100.00,NNE,30,7.0,9.0,93,0.00,,,0.00,,2013-02-04 05:22:00,
2013-02-04 05:33:00,9.0,7.0,-100.00,NNE,30,7.0,9.0,93,0.00,,,0.00,,2013-02-04 05:33:00,
2013-02-04 05:42:00,9.0,7.0,-100.00,NNE,25,8.0,10.0,93,0.00,,,0.00,,2013-02-04 05:42:00,
2013-02-04 05:52:00,9.0,7.0,-100.00,NNE,25,10.0,12.0,93,0.00,,,0.00,,2013-02-04 05:52:00,
2013-02-04 06:02:00,9.0,7.0,-100.00,NNE,30,9.0,11.0,93,0.00,,,0.00,,2013-02-04 06:02:00,
2013-02-04 06:11:00,9.0,7.0,-100.00,NE,40,6.0,9.0,93,0.00,,,0.00,,2013-02-04 06:11:00,
2013-02-04 06:21:00,9.0,7.0,-100.00,NNE,25,6.0,7.0,93,0.00,,,0.00,,2013-02-04 06:21:00,
2013-02-04 06:31:00,9.0,7.0,-100.00,NNE,30,7.0,9.0,93,0.00,,,0.00,,2013-02-04 06:31:00,
2013-02-04 06:41:00,8.0,7.0,-100.00,NNE,25,7.0,9.0,93,0.00,,,0.00,,2013-02-04 06:41:00,
2013-02-04 06:51:00,8.0,7.0,-100.00,NNE,25,6.0,9.0,93,0.00,,,0.00,,2013-02-04 06:51:00,
2013-02-04 07:02:00,7.0,5.0,-100.00,NNE,20,6.0,7.0,93,0.00,,,0.00,,2013-02-04 07:02:00,
2013-02-04 07:11:00,7.0,5.0,-100.00,NNE,20,6.0,7.0,93,0.00,,,0.00,,2013-02-04 07:11:00,
2013-02-04 07:21:00,6.0,5.0,-100.00,North,10,4.0,6.0,93,0.00,,,0.00,,2013-02-04 07:21:00,
2013-02-04 07:31:00,6.0,5.0,-100.00,North,5,4.0,6.0,93,0.00,,,0.00,,2013-02-04 07:31:00,
2013-02-04 07:41:00,6.0,5.0,-100.00,North,10,5.0,6.0,93,0.00,,,0.00,,2013-02-04 07:41:00,
2013-02-04 07:51:00,6.0,5.0,-100.00,North,0,3.0,4.0,93,0.00,,,0.00,,2013-02-04 07:51:00,
2013-02-04 08:01:00,7.0,5.0,-100.00,North,0,4.0,6.0,93,0.00,,,0.00,,2013-02-04 08:01:00,
2013-02-04 08:11:00,7.0,5.0,-100.00,North,10,6.0,6.0,93,0.00,,,0.00,,2013-02-04 08:11:00,
2013-02-04 08:21:00,7.0,5.0,-100.00,North,10,5.0,7.0,93,0.00,,,0.00,,2013-02-04 08:21:00,
2013-02-04 08:31:00,7.0,5.0,-100.00,North,0,4.0,6.0,92,0.00,,,0.00,,2013-02-04 08:31:00,
2013-02-04 08:42:00,6.0,5.0,-100.00,North,10,4.0,6.0,92,0.00,,,0.00,,2013-02-04 08:42:00,
2013-02-04 08:52:00,6.0,5.0,-100.00,NNE,20,6.0,7.0,92,0.00,,,0.00,,2013-02-04 08:52:00,
2013-02-04 09:02:00,6.0,3.0,-100.00,NNE,15,6.0,7.0,91,0.00,,,0.00,,2013-02-04 09:02:00,
2013-02-04 09:11:00,6.0,3.0,-100.00,NNE,20,6.0,9.0,91,0.00,,,0.00,,2013-02-04 09:11:00,
2013-02-04 09:21:00,6.0,3.0,-100.00,North,5,5.0,7.0,91,0.00,,,0.00,,2013-02-04 09:21:00,
2013-02-04 09:31:00,7.0,5.0,-100.00,NNE,15,8.0,11.0,90,0.00,,,0.00,,2013-02-04 09:31:00,
2013-02-04 09:41:00,6.0,3.0,-100.00,NNE,30,9.0,12.0,88,0.00,,,0.00,,2013-02-04 09:41:00,
2013-02-04 09:51:00,6.0,3.0,-100.00,NNE,30,9.0,11.0,88,0.00,,,0.00,,2013-02-04 09:51:00,
2013-02-04 10:01:00,6.0,3.0,-100.00,NNE,25,10.0,12.0,87,0.00,,,0.00,,2013-02-04 10:01:00,
2013-02-04 10:11:00,6.0,3.0,-100.00,NNE,30,9.0,12.0,85,0.00,,,0.00,,2013-02-04 10:11:00,
2013-02-04 10:21:00,6.0,3.0,-100.00,NNE,25,9.0,11.0,85,0.00,,,0.00,,2013-02-04 10:21:00,
2013-02-04 10:32:00,6.0,1.0,-100.00,NNE,25,7.0,11.0,85,0.00,,,0.00,,2013-02-04 10:32:00,
2013-02-04 10:41:00,6.0,1.0,-100.00,NNE,30,8.0,9.0,85,0.00,,,0.00,,2013-02-04 10:41:00,
2013-02-04 10:51:00,5.0,1.0,-100.00,NE,35,7.0,9.0,84,0.00,,,0.00,,2013-02-04 10:51:00,
2013-02-04 11:02:00,4.0,0.0,-100.00,NNE,25,7.0,9.0,84,0.00,,,0.00,,2013-02-04 11:02:00,
2013-02-04 11:11:00,3.0,0.0,-100.00,NNE,20,7.0,9.0,84,0.00,,,0.00,,2013-02-04 11:11:00,
2013-02-04 11:22:00,2.0,-2.0,-100.00,NNE,15,6.0,7.0,84,0.00,,,0.00,,2013-02-04 11:22:00,
2013-02-04 11:32:00,2.0,-2.0,-100.00,NNE,15,5.0,7.0,85,0.00,,,0.00,,2013-02-04 11:32:00,
2013-02-04 11:42:00,1.0,-2.0,-100.00,NNE,15,8.0,9.0,85,0.00,,,0.00,,2013-02-04 11:42:00,
2013-02-04 11:52:00,0.0,-4.0,-100.00,NNE,20,7.0,10.0,85,0.00,,,0.00,,2013-02-04 11:52:00,
2013-02-04 12:02:00,-1.0,-4.0,-100.00,NNE,20,5.0,9.0,85,0.00,,,0.00,,2013-02-04 12:02:00,
2013-02-04 12:12:00,-1.0,-4.0,-100.00,North,10,4.0,7.0,86,0.00,,,0.00,,2013-02-04 12:12:00,
2013-02-04 12:21:00,-2.0,-6.0,-100.00,NNE,30,3.0,7.0,86,0.00,,,0.00,,2013-02-04 12:21:00,
2013-02-04 12:32:00,-3.0,-6.0,-100.00,NNE,25,6.0,6.0,87,0.00,,,0.00,,2013-02-04 12:32:00,
2013-02-04 12:42:00,-2.0,-6.0,-100.00,NNE,25,3.0,6.0,87,0.00,,,0.00,,2013-02-04 12:42:00,
2013-02-04 12:52:00,-2.0,-6.0,-100.00,NNE,25,4.0,6.0,88,0.00,,,0.00,,2013-02-04 12:52:00,
2013-02-04 13:02:00,-3.0,-6.0,-100.00,NNE,15,3.0,5.0,88,0.00,,,0.00,,2013-02-04 13:02:00,
2013-02-04 13:12:00,-3.0,-6.0,-100.00,NNE,15,3.0,5.0,88,0.00,,,0.00,,2013-02-04 13:12:00,
2013-02-04 13:21:00,-4.0,-8.0,-100.00,NNE,15,3.0,4.0,89,0.00,,,0.00,,2013-02-04 13:21:00,
2013-02-04 13:33:00,-5.0,-8.0,-100.00,North,0,4.0,4.0,89,0.00,,,0.00,,2013-02-04 13:33:00,
2013-02-04 13:42:00,-6.0,-8.0,-100.00,North,355,3.0,5.0,90,0.00,,,0.00,,2013-02-04 13:42:00,
2013-02-04 13:51:00,-6.0,-8.0,-100.00,NNW,340,3.0,4.0,90,0.00,,,0.00,,2013-02-04 13:51:00,
2013-02-04 14:03:00,-6.0,-8.0,-100.00,NW,325,1.0,2.0,90,0.00,,,0.00,,2013-02-04 14:03:00,
2013-02-04 14:11:00,-5.0,-8.0,-100.00,NNW,335,2.0,3.0,91,0.00,,,0.00,,2013-02-04 14:11:00,
2013-02-04 14:22:00,-5.0,-8.0,-100.00,North,355,3.0,3.0,91,0.00,,,0.00,,2013-02-04 14:22:00,
2013-02-04 14:32:00,-5.0,-8.0,-100.00,North,355,3.0,4.0,91,0.00,,,0.00,,2013-02-04 14:32:00,
2013-02-04 14:42:00,-5.0,-6.0,-100.00,North,350,4.0,5.0,91,0.00,,,0.00,,2013-02-04 14:42:00,
2013-02-04 14:52:00,-3.0,-4.0,-100.00,North,5,4.0,6.0,91,0.00,,,0.00,,2013-02-04 14:52:00,
2013-02-04 15:03:00,-1.0,-2.0,-100.00,NE,45,3.0,6.0,91,0.00,,,0.00,,2013-02-04 15:03:00,
2013-02-04 15:12:00,0.0,-2.0,-100.00,NNE,30,4.0,5.0,91,0.00,,,0.00,,2013-02-04 15:12:00,
2013-02-04 15:23:00,0.0,-2.0,-100.00,NE,55,3.0,4.0,89,0.00,,,0.00,,2013-02-04 15:23:00,
2013-02-04 15:33:00,2.0,0.0,-100.00,NE,50,2.0,4.0,88,0.00,,,0.00,,2013-02-04 15:33:00,
2013-02-04 15:43:00,2.0,0.0,-100.00,ENE,60,4.0,4.0,87,0.00,,,0.00,,2013-02-04 15:43:00,
2013-02-04 15:52:00,2.0,0.0,-100.00,NE,35,2.0,4.0,85,0.00,,,0.00,,2013-02-04 15:52:00,
2013-02-04 16:02:00,3.0,0.0,-100.00,NNE,15,2.0,3.0,84,0.00,,,0.00,,2013-02-04 16:02:00,
2013-02-04 16:11:00,5.0,1.0,-100.00,NNE,25,2.0,3.0,83,0.00,,,0.00,,2013-02-04 16:11:00,
2013-02-04 16:22:00,5.0,0.0,-100.00,NE,55,3.0,3.0,81,0.00,,,0.00,,2013-02-04 16:22:00,
2013-02-04 16:32:00,5.0,0.0,-100.00,ENE,65,3.0,4.0,80,0.00,,,0.00,,2013-02-04 16:32:00,
2013-02-04 16:42:00,6.0,1.0,-100.00,ESE,120,2.0,4.0,78,0.00,,,0.00,,2013-02-04 16:42:00,
2013-02-04 16:51:00,6.0,0.0,-100.00,SE,125,4.0,6.0,77,0.00,,,0.00,,2013-02-04 16:51:00,
2013-02-04 17:02:00,6.0,1.0,-100.00,SSE,150,3.0,7.0,76,0.00,,,0.00,,2013-02-04 17:02:00,
2013-02-04 17:11:00,6.0,1.0,-100.00,ESE,120,3.0,7.0,76,0.00,,,0.00,,2013-02-04 17:11:00,
2013-02-04 17:21:00,8.0,1.0,-100.00,SE,140,4.0,4.0,74,0.00,,,0.00,,2013-02-04 17:21:00,
2013-02-04 17:31:00,8.0,1.0,-100.00,SSE,160,4.0,4.0,73,0.00,,,0.00,,2013-02-04 17:31:00,
2013-02-04 17:42:00,9.0,1.0,-100.00,South,170,4.0,6.0,72,0.00,,,0.00,,2013-02-04 17:42:00,
2013-02-04 17:51:00,10.0,3.0,-100.00,South,180,3.0,5.0,71,0.00,,,0.00,,2013-02-04 17:51:00,
2013-02-04 18:03:00,10.0,1.0,-100.00,South,175,5.0,6.0,70,0.00,,,0.00,,2013-02-04 18:03:00,
2013-02-04 18:11:00,10.0,1.0,-100.00,SSE,165,4.0,6.0,69,0.00,,,0.00,,2013-02-04 18:11:00,
2013-02-04 18:22:00,9.0,1.0,-100.00,South,175,4.0,6.0,69,0.00,,,0.00,,2013-02-04 18:22:00,
2013-02-04 18:32:00,10.0,1.0,-100.00,South,175,4.0,6.0,69,0.00,,,0.00,,2013-02-04 18:32:00,
2013-02-04 18:41:00,11.0,3.0,-100.00,SSW,195,7.0,9.0,69,0.00,,,0.00,,2013-02-04 18:41:00,
2013-02-04 18:52:00,13.0,5.0,-100.00,SSW,200,7.0,9.0,68,0.00,,,0.00,,2013-02-04 18:52:00,
2013-02-04 19:02:00,12.0,3.0,-100.00,SSW,205,10.0,13.0,68,0.00,,,0.00,,2013-02-04 19:02:00,
2013-02-04 19:11:00,12.0,3.0,-100.00,SSW,200,12.0,13.0,68,0.00,,,0.00,,2013-02-04 19:11:00,
2013-02-04 19:22:00,12.0,3.0,-100.00,SSW,200,14.0,17.0,68,0.00,,,0.00,,2013-02-04 19:22:00,
2013-02-04 19:31:00,11.0,3.0,-100.00,South,190,16.0,20.0,69,0.00,,,0.00,,2013-02-04 19:31:00,
2013-02-04 19:41:00,11.0,3.0,-100.00,SSW,195,17.0,20.0,70,0.00,,,0.00,,2013-02-04 19:41:00,
2013-02-04 19:51:00,12.0,3.0,-100.00,South,190,15.0,19.0,70,0.00,,,0.00,,2013-02-04 19:51:00,
2013-02-04 20:02:00,13.0,5.0,-100.00,SSW,200,12.0,19.0,70,0.00,,,0.00,,2013-02-04 20:02:00,
2013-02-04 20:12:00,14.0,5.0,-100.00,SSW,200,12.0,14.0,68,0.00,,,0.00,,2013-02-04 20:12:00,
2013-02-04 20:21:00,13.0,5.0,-100.00,SSW,200,11.0,15.0,68,0.00,,,0.00,,2013-02-04 20:21:00,
2013-02-04 20:32:00,14.0,5.0,-100.00,SSW,205,9.0,12.0,67,0.00,,,0.00,,2013-02-04 20:32:00,
2013-02-04 20:42:00,14.0,5.0,-100.00,SSW,200,7.0,9.0,66,0.00,,,0.00,,2013-02-04 20:42:00,
2013-02-04 20:52:00,14.0,5.0,-100.00,SSW,200,7.0,9.0,66,0.00,,,0.00,,2013-02-04 20:52:00,
2013-02-04 21:02:00,14.0,5.0,-100.00,South,190,5.0,7.0,66,0.00,,,0.00,,2013-02-04 21:02:00,
2013-02-04 21:11:00,13.0,3.0,-100.00,South,185,7.0,7.0,66,0.00,,,0.00,,2013-02-04 21:11:00,
2013-02-04 21:22:00,13.0,5.0,-100.00,SSW,205,9.0,9.0,67,0.00,,,0.00,,2013-02-04 21:22:00,
2013-02-04 21:31:00,13.0,3.0,-100.00,SSW,210,8.0,9.0,68,0.00,,,0.00,,2013-02-04 21:31:00,
2013-02-04 21:42:00,13.0,3.0,-100.00,WSW,240,7.0,9.0,68,0.00,,,0.00,,2013-02-04 21:42:00,
2013-02-04 21:51:00,12.0,3.0,-100.00,WSW,240,9.0,12.0,68,0.00,,,0.00,,2013-02-04 21:51:00,
2013-02-04 22:02:00,11.0,3.0,-100.00,SW,230,10.0,11.0,69,0.00,,,0.00,,2013-02-04 22:02:00,
2013-02-04 22:12:00,11.0,3.0,-100.00,SSW,210,9.0,12.0,70,0.00,,,0.00,,2013-02-04 22:12:00,
2013-02-04 22:21:00,11.0,3.0,-100.00,SSW,200,12.0,12.0,71,0.00,,,0.00,,2013-02-04 22:21:00,
2013-02-04 22:32:00,10.0,3.0,-100.00,SSW,205,12.0,14.0,72,0.00,,,0.00,,2013-02-04 22:32:00,
2013-02-04 22:41:00,10.0,3.0,-100.00,SSW,205,11.0,13.0,74,0.00,,,0.00,,2013-02-04 22:41:00,
2013-02-04 22:51:00,9.0,3.0,-100.00,SSW,200,10.0,16.0,75,0.00,,,0.00,,2013-02-04 22:51:00,
2013-02-04 23:01:00,9.0,3.0,-100.00,South,180,9.0,11.0,77,0.00,,,0.00,,2013-02-04 23:01:00,
2013-02-04 23:11:00,9.0,3.0,-100.00,South,185,9.0,11.0,78,0.00,,,0.00,,2013-02-04 23:11:00,
2013-02-04 23:21:00,9.0,3.0,-100.00,South,175,7.0,9.0,79,0.00,,,0.00,,2013-02-04 23:21:00,
2013-02-04 23:32:00,9.0,5.0,-100.00,SSE,155,8.0,9.0,80,0.00,,,0.00,,2013-02-04 23:32:00,
2013-02-04 23:42:00,9.0,5.0,-100.00,South,170,8.0,10.0,81,0.00,,,0.00,,2013-02-04 23:42:00,
2013-02-04 23:52:00,9.0,5.0,-100.00,SSE,160,9.0,10.0,81,0.00,,,0.00,,2013-02-04 23:52:00,